createdAt,value
2017-12-24T00:01:45.409Z,60.70
2017-12-24T00:04:13.182Z,60.40
2017-12-24T00:06:40.910Z,60.10
2017-12-24T00:09:08.631Z,59.90
2017-12-24T00:11:37.143Z,59.60
2017-12-24T00:14:04.886Z,59.50
2017-12-24T00:16:32.683Z,59.50
2017-12-24T00:19:00.364Z,59.30
2017-12-24T00:21:28.820Z,59.10
2017-12-24T00:23:56.553Z,59.10
2017-12-24T00:26:24.289Z,59.20
2017-12-24T00:28:52.733Z,59.00
2017-12-24T00:31:20.419Z,58.80
2017-12-24T00:33:48.158Z,58.80
2017-12-24T00:36:15.846Z,58.80
2017-12-24T00:38:43.505Z,58.80
2017-12-24T00:41:11.322Z,58.90
2017-12-24T00:43:39.071Z,58.80
2017-12-24T00:46:07.704Z,59.00
2017-12-24T00:48:35.450Z,58.90
2017-12-24T00:51:03.199Z,58.90
2017-12-24T00:53:31.069Z,59.10
2017-12-24T00:55:58.775Z,59.10
2017-12-24T00:58:26.538Z,59.10
2017-12-24T01:00:54.199Z,59.20
2017-12-24T01:03:22.754Z,59.10
2017-12-24T01:05:50.445Z,59.00
2017-12-24T01:08:19.039Z,58.90
2017-12-24T01:10:46.765Z,58.50
2017-12-24T01:13:14.484Z,58.40
2017-12-24T01:15:42.339Z,58.20
2017-12-24T01:18:10.034Z,58.10
2017-12-24T01:20:38.335Z,58.00
2017-12-24T01:23:06.108Z,58.00
2017-12-24T01:25:33.889Z,58.20
2017-12-24T01:28:01.739Z,58.40
2017-12-24T01:30:30.201Z,57.90
2017-12-24T01:32:57.985Z,57.70
2017-12-24T01:35:26.491Z,57.80
2017-12-24T01:37:54.307Z,57.70
2017-12-24T01:40:22.083Z,57.50
2017-12-24T01:42:49.813Z,57.50
2017-12-24T01:45:18.289Z,57.40
2017-12-24T01:47:52.071Z,57.40
2017-12-24T01:50:19.931Z,57.40
2017-12-24T01:52:47.697Z,57.30
2017-12-24T01:55:15.402Z,57.20
2017-12-24T01:57:43.145Z,57.10
2017-12-24T02:00:11.764Z,57.10
2017-12-24T02:02:39.607Z,57.10
2017-12-24T02:05:08.178Z,56.90
2017-12-24T02:07:35.845Z,56.80
2017-12-24T02:10:03.532Z,56.90
2017-12-24T02:12:31.405Z,56.90
2017-12-24T02:14:59.241Z,56.90
2017-12-24T02:17:27.721Z,56.90
2017-12-24T02:19:55.441Z,56.80
2017-12-24T02:22:23.117Z,56.90
2017-12-24T02:24:50.855Z,56.70
2017-12-24T02:27:18.661Z,56.30
2017-12-24T02:29:46.459Z,56.20
2017-12-24T02:32:14.159Z,56.20
2017-12-24T02:34:41.973Z,56.10
2017-12-24T02:37:10.657Z,56.20
2017-12-24T02:39:38.370Z,56.20
2017-12-24T02:42:06.162Z,56.10
2017-12-24T02:44:33.925Z,56.00
2017-12-24T02:47:01.670Z,55.70
2017-12-24T02:49:29.434Z,55.80
2017-12-24T02:51:57.217Z,55.90
2017-12-24T02:54:25.769Z,55.70
2017-12-24T02:56:53.607Z,55.80
2017-12-24T02:59:21.281Z,55.50
2017-12-24T03:01:48.979Z,55.40
2017-12-24T03:04:16.785Z,55.30
2017-12-24T03:06:45.342Z,55.60
2017-12-24T03:09:13.105Z,55.40
2017-12-24T03:11:40.784Z,55.40
2017-12-24T03:14:09.355Z,55.50
2017-12-24T03:16:37.052Z,55.40
2017-12-24T03:19:04.902Z,55.40
2017-12-24T03:21:32.759Z,55.40
2017-12-24T03:24:00.573Z,55.50
2017-12-24T03:26:28.451Z,55.40
2017-12-24T03:28:56.921Z,55.40
2017-12-24T03:31:25.324Z,55.40
2017-12-24T03:33:53.206Z,55.60
2017-12-24T03:36:22.216Z,55.60
2017-12-24T03:38:50.160Z,55.70
2017-12-24T03:41:17.950Z,55.70
2017-12-24T03:43:46.525Z,55.70
2017-12-24T03:46:14.259Z,55.70
2017-12-24T03:48:42.719Z,55.70
2017-12-24T03:51:10.399Z,55.70
2017-12-24T03:53:38.167Z,55.70
2017-12-24T03:56:06.025Z,55.50
2017-12-24T03:58:33.814Z,55.40
2017-12-24T04:01:01.475Z,55.30
2017-12-24T04:03:29.187Z,55.30
2017-12-24T04:05:56.921Z,55.10
2017-12-24T04:08:25.470Z,55.30
2017-12-24T04:10:53.249Z,55.20
2017-12-24T04:13:21.127Z,55.40
2017-12-24T04:15:48.877Z,55.40
2017-12-24T04:18:16.610Z,55.10
2017-12-24T04:20:44.320Z,55.50
2017-12-24T04:23:12.145Z,55.40
2017-12-24T04:25:40.445Z,55.50
2017-12-24T04:28:08.141Z,55.40
2017-12-24T04:30:36.629Z,55.40
2017-12-24T04:33:04.781Z,55.30
2017-12-24T04:35:32.583Z,55.20
2017-12-24T04:38:00.363Z,55.40
2017-12-24T04:40:28.183Z,55.20
2017-12-24T04:42:56.742Z,55.80
2017-12-24T04:45:24.454Z,55.50
2017-12-24T04:47:52.145Z,55.20
2017-12-24T04:50:20.836Z,55.40
2017-12-24T04:52:48.493Z,55.20
2017-12-24T04:55:16.221Z,55.20
2017-12-24T04:57:44.081Z,55.20
2017-12-24T05:00:11.915Z,55.10
2017-12-24T05:02:39.653Z,55.00
2017-12-24T05:05:07.476Z,55.00
2017-12-24T05:07:35.238Z,54.90
2017-12-24T05:10:03.711Z,54.70
2017-12-24T05:12:32.177Z,54.70
2017-12-24T05:15:00.638Z,54.60
2017-12-24T05:17:28.336Z,55.10
2017-12-24T05:19:56.922Z,54.60
2017-12-24T05:22:25.405Z,54.60
2017-12-24T05:24:54.060Z,54.50
2017-12-24T05:27:21.799Z,54.40
2017-12-24T05:29:49.635Z,54.50
2017-12-24T05:32:17.312Z,54.30
2017-12-24T05:34:45.202Z,54.40
2017-12-24T05:37:13.001Z,54.30
2017-12-24T05:39:41.517Z,54.30
2017-12-24T05:42:09.348Z,54.10
2017-12-24T05:44:37.196Z,54.20
2017-12-24T05:47:05.034Z,53.90
2017-12-24T05:49:34.087Z,54.30
2017-12-24T05:52:01.820Z,54.20
2017-12-24T05:54:29.599Z,54.20
2017-12-24T05:56:57.446Z,54.10
2017-12-24T05:59:25.144Z,54.20
2017-12-24T06:01:53.721Z,54.10
2017-12-24T06:04:21.444Z,54.10
2017-12-24T06:06:49.241Z,54.10
2017-12-24T06:09:17.009Z,54.30
2017-12-24T06:11:44.878Z,54.40
2017-12-24T06:14:12.754Z,54.60
2017-12-24T06:16:40.498Z,54.60
2017-12-24T06:19:08.198Z,55.00
2017-12-24T06:21:35.951Z,54.40
2017-12-24T06:24:04.532Z,53.80
2017-12-24T06:26:33.013Z,53.90
2017-12-24T06:29:00.859Z,53.80
2017-12-24T06:31:28.589Z,53.90
2017-12-24T06:33:56.402Z,53.70
2017-12-24T06:36:24.961Z,53.70
2017-12-24T06:38:52.717Z,53.60
2017-12-24T06:41:20.492Z,53.80
2017-12-24T06:43:48.277Z,53.40
2017-12-24T06:46:16.067Z,53.40
2017-12-24T06:48:43.841Z,53.50
2017-12-24T06:51:12.427Z,53.40
2017-12-24T06:53:40.289Z,53.40
2017-12-24T06:56:08.059Z,53.40
2017-12-24T06:58:35.835Z,53.40
2017-12-24T07:01:03.587Z,53.10
2017-12-24T07:03:31.363Z,53.10
2017-12-24T07:05:59.115Z,52.90
2017-12-24T07:08:26.927Z,52.90
2017-12-24T07:10:55.241Z,52.80
2017-12-24T07:13:24.483Z,52.50
2017-12-24T07:15:52.254Z,52.40
2017-12-24T07:18:20.027Z,52.50
2017-12-24T07:20:47.811Z,52.50
2017-12-24T07:23:15.536Z,52.10
2017-12-24T07:25:43.411Z,52.10
2017-12-24T07:28:12.045Z,52.00
2017-12-24T07:30:40.569Z,51.60
2017-12-24T07:33:08.311Z,51.50
2017-12-24T07:35:36.243Z,51.10
2017-12-24T07:38:04.041Z,50.90
2017-12-24T07:40:31.831Z,51.10
2017-12-24T07:42:59.619Z,50.60
2017-12-24T07:45:27.385Z,50.60
2017-12-24T07:47:55.907Z,50.40
2017-12-24T07:50:23.683Z,50.30
2017-12-24T07:52:51.522Z,50.00
2017-12-24T07:55:19.293Z,49.80
2017-12-24T07:57:47.305Z,49.20
2017-12-24T08:00:15.088Z,49.60
2017-12-24T08:02:42.900Z,49.50
2017-12-24T08:05:11.229Z,49.30
2017-12-24T08:07:39.845Z,49.10
2017-12-24T08:10:07.959Z,49.00
2017-12-24T08:12:35.668Z,49.60
2017-12-24T08:15:03.400Z,48.30
2017-12-24T08:17:31.260Z,48.00
2017-12-24T08:19:58.986Z,48.00
2017-12-24T08:22:26.818Z,47.90
2017-12-24T08:24:54.610Z,47.90
2017-12-24T08:27:23.369Z,47.90
2017-12-24T08:29:51.197Z,47.80
2017-12-24T08:32:19.069Z,47.90
2017-12-24T08:34:46.854Z,47.80
2017-12-24T08:37:14.550Z,48.10
2017-12-24T08:39:43.123Z,48.30
2017-12-24T08:42:10.909Z,48.20
2017-12-24T08:44:39.472Z,48.00
2017-12-24T08:47:07.189Z,47.80
2017-12-24T08:49:35.026Z,47.90
2017-12-24T08:52:02.887Z,47.90
2017-12-24T08:54:32.195Z,47.70
2017-12-24T08:57:00.029Z,47.60
2017-12-24T08:59:27.827Z,48.00
2017-12-24T09:01:56.717Z,47.90
2017-12-24T09:04:24.504Z,47.70
2017-12-24T09:06:52.339Z,48.00
2017-12-24T09:09:20.902Z,48.10
2017-12-24T09:11:48.771Z,48.00
2017-12-24T09:14:17.082Z,47.90
2017-12-24T09:16:44.903Z,48.20
2017-12-24T09:19:12.677Z,48.10
2017-12-24T09:21:41.276Z,48.20
2017-12-24T09:24:09.106Z,48.20
2017-12-24T09:26:36.834Z,48.30
2017-12-24T09:29:05.414Z,48.50
2017-12-24T09:31:33.219Z,48.60
2017-12-24T09:34:02.151Z,48.50
2017-12-24T09:36:30.722Z,49.00
2017-12-24T09:38:59.301Z,48.70
2017-12-24T09:41:27.037Z,48.60
2017-12-24T09:43:54.827Z,48.60
2017-12-24T09:46:22.710Z,48.20
2017-12-24T09:48:51.265Z,48.20
2017-12-24T09:51:19.050Z,48.20
2017-12-24T09:53:46.788Z,48.10
2017-12-24T09:56:14.634Z,48.10
2017-12-24T09:58:42.476Z,47.90
2017-12-24T10:01:10.243Z,47.60
2017-12-24T10:03:38.869Z,47.60
2017-12-24T10:06:06.662Z,47.10
2017-12-24T10:08:34.437Z,47.10
2017-12-24T10:11:03.036Z,47.00
2017-12-24T10:13:30.861Z,46.90
2017-12-24T10:15:58.601Z,46.80
2017-12-24T10:18:26.328Z,46.70
2017-12-24T10:20:54.141Z,46.70
2017-12-24T10:23:21.865Z,46.30
2017-12-24T10:25:49.651Z,46.60
2017-12-24T10:28:17.464Z,46.50
2017-12-24T10:30:45.286Z,46.60
2017-12-24T10:33:13.015Z,46.30
2017-12-24T10:35:41.136Z,46.60
2017-12-24T10:38:08.836Z,45.90
2017-12-24T10:40:37.296Z,45.70
2017-12-24T10:43:05.082Z,45.70
2017-12-24T10:45:32.908Z,45.80
2017-12-24T10:48:00.805Z,45.70
2017-12-24T10:50:28.522Z,45.70
2017-12-24T10:52:56.230Z,45.50
2017-12-24T10:55:24.826Z,45.40
2017-12-24T10:57:53.366Z,45.50
2017-12-24T11:00:21.178Z,45.40
2017-12-24T11:02:48.892Z,45.10
2017-12-24T11:05:16.661Z,45.20
2017-12-24T11:07:44.380Z,45.20
2017-12-24T11:10:12.109Z,45.20
2017-12-24T11:12:39.826Z,45.00
2017-12-24T11:15:07.540Z,44.80
2017-12-24T11:17:36.021Z,45.00
2017-12-24T11:20:04.366Z,44.80
2017-12-24T11:22:32.061Z,45.50
2017-12-24T11:25:00.248Z,44.80
2017-12-24T11:27:29.104Z,44.50
2017-12-24T11:29:56.362Z,44.50
2017-12-24T11:32:23.602Z,44.70
2017-12-24T11:34:50.834Z,44.50
2017-12-24T11:37:18.958Z,44.70
2017-12-24T11:39:46.315Z,44.50
2017-12-24T11:42:14.400Z,44.50
2017-12-24T11:44:42.428Z,44.60
2017-12-24T11:47:09.774Z,44.60
2017-12-24T11:49:37.433Z,44.60
2017-12-24T11:52:04.654Z,44.80
2017-12-24T11:54:31.992Z,45.50
2017-12-24T11:56:59.240Z,45.40
2017-12-24T11:59:27.071Z,45.40
2017-12-24T12:01:54.802Z,45.20
2017-12-24T12:04:23.446Z,45.00
2017-12-24T12:06:52.010Z,45.60
2017-12-24T12:09:19.694Z,45.00
2017-12-24T12:11:48.329Z,45.20
2017-12-24T12:14:16.056Z,45.10
2017-12-24T12:16:44.561Z,46.30
2017-12-24T12:19:13.120Z,45.70
2017-12-24T12:21:40.976Z,45.70
2017-12-24T12:24:08.733Z,44.80
2017-12-24T12:26:37.302Z,45.10
2017-12-24T12:29:05.161Z,45.00
2017-12-24T12:43:00.986Z,45.40
2017-12-24T12:45:29.634Z,45.70
2017-12-24T12:47:57.330Z,45.70
2017-12-24T12:50:25.864Z,45.80
2017-12-24T12:52:53.722Z,45.70
2017-12-24T12:55:21.434Z,45.80
2017-12-24T12:57:50.068Z,45.70
2017-12-24T13:00:18.187Z,45.50
2017-12-24T13:02:45.911Z,45.80
2017-12-24T13:05:13.963Z,45.70
2017-12-24T13:07:41.896Z,46.00
2017-12-24T13:10:09.648Z,45.90
2017-12-24T13:12:37.390Z,46.20
2017-12-24T13:15:05.933Z,46.30
2017-12-24T13:17:33.718Z,46.20
2017-12-24T13:20:01.460Z,46.20
2017-12-24T13:22:30.550Z,46.30
2017-12-24T13:24:58.324Z,46.30
2017-12-24T13:27:26.108Z,46.50
2017-12-24T13:29:53.840Z,46.30
2017-12-24T13:32:22.408Z,46.40
2017-12-24T13:34:50.269Z,46.40
2017-12-24T13:37:19.187Z,46.70
2017-12-24T13:39:46.924Z,46.70
2017-12-24T13:42:14.875Z,46.90
2017-12-24T13:44:42.628Z,47.50
2017-12-24T13:47:10.430Z,46.90
2017-12-24T13:49:39.004Z,47.00
2017-12-24T13:52:06.722Z,46.80
2017-12-24T13:54:34.538Z,47.00
2017-12-24T13:57:03.066Z,47.10
2017-12-24T13:59:30.790Z,47.00
2017-12-24T14:01:59.273Z,47.30
2017-12-24T14:04:27.868Z,47.10
2017-12-24T14:06:55.648Z,47.00
2017-12-24T14:09:23.410Z,47.10
2017-12-24T14:11:51.254Z,47.00
2017-12-24T14:14:19.774Z,46.60
2017-12-24T14:16:47.536Z,46.50
2017-12-24T14:19:15.294Z,46.40
2017-12-24T14:21:44.238Z,46.40
2017-12-24T14:24:12.055Z,46.40
2017-12-24T14:26:39.942Z,46.20
2017-12-24T14:29:08.010Z,45.90
2017-12-24T14:31:35.838Z,45.90
2017-12-24T14:34:03.658Z,45.80
2017-12-24T14:36:31.529Z,45.70
2017-12-24T14:38:59.266Z,46.00
2017-12-24T14:41:27.018Z,45.90
2017-12-24T14:43:54.872Z,45.80
2017-12-24T14:46:22.720Z,45.90
2017-12-24T14:48:51.624Z,45.60
2017-12-24T14:51:19.488Z,45.80
2017-12-24T14:53:47.299Z,45.80
2017-12-24T14:56:15.155Z,46.30
2017-12-24T14:58:42.839Z,47.50
2017-12-24T15:01:10.767Z,47.80
2017-12-24T15:03:38.528Z,48.30
2017-12-24T15:06:06.278Z,48.10
2017-12-24T15:08:34.038Z,48.60
2017-12-24T15:11:02.534Z,49.20
2017-12-24T15:13:30.275Z,49.20
2017-12-24T15:15:58.795Z,49.00
2017-12-24T15:18:26.966Z,48.90
2017-12-24T15:20:54.844Z,48.30
2017-12-24T15:23:22.667Z,48.50
2017-12-24T15:25:50.512Z,48.00
2017-12-24T15:28:18.284Z,48.00
2017-12-24T15:30:46.008Z,47.50
2017-12-24T15:33:13.784Z,47.20
2017-12-24T15:35:42.820Z,46.90
2017-12-24T15:38:11.326Z,46.80
2017-12-24T15:40:39.065Z,46.80
2017-12-24T15:45:17.364Z,53.70
2017-12-24T15:47:43.832Z,45.60
2017-12-24T15:54:27.167Z,52.60
2017-12-24T15:56:54.856Z,46.30
2017-12-24T15:59:22.650Z,44.40
2017-12-24T16:03:50.787Z,28.90
2017-12-24T16:06:23.000Z,31.80
2017-12-24T16:08:50.833Z,31.70
2017-12-24T16:11:18.587Z,35.00
2017-12-24T16:13:48.247Z,40.10
2017-12-24T16:16:16.114Z,40.00
2017-12-24T16:18:44.351Z,41.40
2017-12-24T16:21:12.101Z,42.70
2017-12-24T16:23:39.928Z,43.70
2017-12-24T16:26:07.656Z,45.30
2017-12-24T16:28:35.350Z,45.80
2017-12-24T16:31:03.142Z,46.10
2017-12-24T16:33:31.921Z,46.90
2017-12-24T16:35:59.637Z,46.80
2017-12-24T16:38:27.498Z,47.20
2017-12-24T16:40:55.282Z,47.20
2017-12-24T16:43:23.025Z,47.20
2017-12-24T16:45:51.645Z,47.20
2017-12-24T16:48:19.452Z,47.40
2017-12-24T16:50:47.174Z,47.40
2017-12-24T16:53:14.921Z,47.50
2017-12-24T16:55:42.641Z,47.50
2017-12-24T16:58:11.140Z,47.30
2017-12-24T17:00:38.828Z,47.30
2017-12-24T17:03:06.694Z,47.40
2017-12-24T17:05:34.426Z,47.30
2017-12-24T17:08:02.142Z,47.30
2017-12-24T17:10:30.042Z,47.20
2017-12-24T17:12:58.841Z,47.30
2017-12-24T17:15:26.724Z,47.30
2017-12-24T17:17:54.437Z,47.00
2017-12-24T17:20:22.247Z,46.70
2017-12-24T17:22:49.998Z,46.70
2017-12-24T17:25:17.758Z,46.40
2017-12-24T17:27:45.604Z,46.30
2017-12-24T17:30:13.368Z,45.80
2017-12-24T17:32:41.107Z,45.60
2017-12-24T17:35:08.904Z,45.60
2017-12-24T17:37:37.427Z,45.70
2017-12-24T17:40:05.298Z,45.10
2017-12-24T17:42:33.046Z,45.30
2017-12-24T17:45:00.916Z,45.60
2017-12-24T17:47:28.665Z,45.30
2017-12-24T17:49:56.506Z,45.10
2017-12-24T17:52:24.194Z,45.00
2017-12-24T17:54:52.060Z,44.70
2017-12-24T17:57:20.187Z,44.60
2017-12-24T17:59:49.380Z,44.60
2017-12-24T18:02:17.154Z,45.20
2017-12-24T18:04:44.915Z,45.40
2017-12-24T18:07:12.650Z,46.10
2017-12-24T18:09:40.440Z,46.30
2017-12-24T18:12:09.134Z,46.90
2017-12-24T18:14:36.900Z,48.00
2017-12-24T18:17:05.852Z,48.10
2017-12-24T18:19:34.091Z,48.40
2017-12-24T18:22:01.992Z,49.40
2017-12-24T18:24:30.461Z,49.70
2017-12-24T18:26:58.320Z,49.60
2017-12-24T18:29:26.301Z,50.10
2017-12-24T18:31:54.571Z,50.00
2017-12-24T18:34:22.458Z,50.50
2017-12-24T18:36:51.198Z,50.90
2017-12-24T18:39:19.038Z,50.80
2017-12-24T18:41:47.572Z,51.00
2017-12-24T18:44:15.451Z,51.90
2017-12-24T18:46:43.962Z,51.60
2017-12-24T18:49:11.856Z,51.70
2017-12-24T18:51:40.444Z,53.00
2017-12-24T18:54:09.135Z,52.90
2017-12-24T18:56:36.852Z,51.70
2017-12-24T18:59:04.588Z,51.40
2017-12-24T19:01:32.351Z,51.20
2017-12-24T19:04:00.181Z,50.60
2017-12-24T19:06:28.154Z,51.20
2017-12-24T19:08:56.626Z,51.50
2017-12-24T19:11:24.494Z,52.10
2017-12-24T19:13:52.223Z,52.40
2017-12-24T19:16:20.014Z,52.50
2017-12-24T19:18:47.740Z,52.70
2017-12-24T19:21:15.950Z,53.20
2017-12-24T19:23:43.722Z,53.40
2017-12-24T19:26:11.518Z,53.90
2017-12-24T19:28:40.288Z,55.60
2017-12-24T19:31:08.018Z,55.50
2017-12-24T19:33:35.731Z,56.10
2017-12-24T19:36:04.308Z,57.20
2017-12-24T19:38:32.896Z,57.60
2017-12-24T19:41:01.562Z,57.60
2017-12-24T19:43:29.271Z,57.70
2017-12-24T19:45:57.050Z,58.10
2017-12-24T19:48:24.907Z,58.30
2017-12-24T19:50:52.591Z,58.60
2017-12-24T19:53:20.361Z,59.00
2017-12-24T19:55:48.861Z,59.20
2017-12-24T19:58:16.618Z,59.40
2017-12-24T20:00:44.503Z,59.90
2017-12-24T20:03:12.270Z,60.30
2017-12-24T20:05:40.083Z,60.70
2017-12-24T20:08:07.910Z,61.20
2017-12-24T20:10:35.601Z,61.50
2017-12-24T20:13:03.548Z,61.80
2017-12-24T20:15:31.360Z,62.30
2017-12-24T20:17:59.759Z,62.50
2017-12-24T20:20:27.629Z,62.80
2017-12-24T20:22:55.368Z,63.30
2017-12-24T20:25:23.225Z,63.50
2017-12-24T20:27:50.921Z,63.90
2017-12-24T20:30:18.712Z,64.70
2017-12-24T20:32:47.249Z,65.00
2017-12-24T20:35:15.089Z,64.90
2017-12-24T20:37:42.815Z,66.00
2017-12-24T20:40:11.295Z,66.80
2017-12-24T20:42:39.807Z,66.70
2017-12-24T20:45:07.564Z,67.00
2017-12-24T20:47:36.099Z,67.90
2017-12-24T20:50:05.185Z,67.90
2017-12-24T20:52:33.113Z,68.00
2017-12-24T20:55:00.876Z,67.70
2017-12-24T20:57:31.232Z,67.70
2017-12-24T20:59:58.973Z,67.60
2017-12-24T21:02:26.789Z,68.10
2017-12-24T21:04:54.600Z,68.10
2017-12-24T21:07:22.350Z,67.90
2017-12-24T21:09:50.059Z,67.70
2017-12-24T21:12:17.793Z,67.30
2017-12-24T21:14:45.606Z,67.30
2017-12-24T21:17:13.313Z,66.90
2017-12-24T21:19:41.087Z,67.20
2017-12-24T21:22:08.830Z,66.80
2017-12-24T21:24:37.302Z,67.20
2017-12-24T21:27:05.851Z,67.40
2017-12-24T21:29:34.415Z,68.10
2017-12-24T21:32:02.999Z,68.90
2017-12-24T21:34:30.727Z,68.10
2017-12-24T21:36:58.504Z,68.10
2017-12-24T21:39:26.351Z,68.20
2017-12-24T21:41:54.188Z,68.10
2017-12-24T21:44:21.947Z,67.90
2017-12-24T21:46:49.755Z,68.00
2017-12-24T21:49:18.275Z,67.80
2017-12-24T21:51:46.109Z,67.70
2017-12-24T21:54:14.588Z,67.90
2017-12-24T21:56:42.341Z,67.80
2017-12-24T21:59:10.833Z,67.90
2017-12-24T22:01:39.465Z,68.10
2017-12-24T22:04:07.995Z,68.20
2017-12-24T22:06:36.509Z,68.40
2017-12-24T22:09:04.399Z,68.20
2017-12-24T22:11:32.161Z,68.60
2017-12-24T22:14:01.365Z,68.70
2017-12-24T22:16:29.149Z,68.60
2017-12-24T22:18:57.605Z,68.50
2017-12-24T22:21:25.281Z,69.60
2017-12-24T22:23:52.959Z,69.10
2017-12-24T22:26:20.649Z,69.10
2017-12-24T22:28:48.454Z,69.20
2017-12-24T22:31:16.124Z,69.30
2017-12-24T22:33:43.839Z,69.60
2017-12-24T22:36:11.685Z,69.70
2017-12-24T22:38:40.931Z,69.40
2017-12-24T22:41:09.039Z,69.40
2017-12-24T22:43:36.753Z,69.40
2017-12-24T22:46:04.449Z,69.10
2017-12-24T22:48:32.140Z,69.20
2017-12-24T22:51:00.701Z,70.20
2017-12-24T22:53:28.473Z,70.20
2017-12-24T22:55:56.305Z,70.30
2017-12-24T22:58:24.101Z,70.40
2017-12-24T23:00:51.933Z,70.90
2017-12-24T23:03:19.713Z,71.10
2017-12-24T23:05:47.589Z,71.10
2017-12-24T23:08:15.300Z,71.50
2017-12-24T23:10:43.003Z,71.60
2017-12-24T23:13:10.702Z,71.90
2017-12-24T23:15:38.575Z,72.60
2017-12-24T23:18:06.304Z,72.70
2017-12-24T23:20:34.095Z,72.00
2017-12-24T23:23:01.779Z,72.20
2017-12-24T23:25:30.322Z,70.40
2017-12-24T23:27:58.078Z,70.30
2017-12-24T23:30:25.952Z,70.60
2017-12-24T23:32:53.669Z,70.70
2017-12-24T23:35:21.419Z,70.90
2017-12-24T23:37:49.879Z,71.60
2017-12-24T23:40:17.594Z,71.50
2017-12-24T23:42:45.273Z,71.60
2017-12-24T23:45:12.982Z,70.80
2017-12-24T23:47:41.457Z,70.20
2017-12-24T23:50:09.993Z,70.00
2017-12-24T23:52:37.715Z,69.80
2017-12-24T23:55:06.199Z,70.90
2017-12-24T23:57:34.693Z,70.90
